Time;durP1;ratioP1;P1;durP2;ratioP2;P2;SDS_P1;SDS_P2;PMS_P1;PMS_P2;Temp;Humidity;BMP_temperature;BMP_pressure;BME280_temperature;BME280_humidity;BME280_pressure;Samples;Min_cycle;Max_cycle;Signal;HPM_P1;HPM_P2
2022/12/29 00:02:20;;;;;;;4.60;1.17;;;;;;;;;;6067162;23;20029;-87
2022/12/29 00:04:46;;;;;;;2.00;1.00;;;;;;;;;;6069526;23;20073;-86
2022/12/29 00:07:11;;;;;;;3.38;1.20;;;;;;;;;;6067634;23;20466;-86
2022/12/29 00:09:37;;;;;;;2.70;1.25;;;;;;;;;;6068455;23;20014;-87
2022/12/29 00:12:03;;;;;;;2.15;0.93;;;;;;;;;;6067334;23;20017;-87
2022/12/29 00:17:13;;;;;;;2.97;1.10;;;;;;;;;;6095267;23;20025;-88
2022/12/29 00:36:19;;;;;;;3.88;1.40;;;;;;;;;;6096189;23;20025;-87
2022/12/29 00:44:29;;;;;;;2.95;1.15;;;;;;;;;;6095896;23;20033;-86
2022/12/29 00:46:54;;;;;;;3.10;1.10;;;;;;;;;;6092139;23;20398;-86
2022/12/29 00:49:32;;;;;;;4.60;1.10;;;;;;;;;;6092069;23;20025;-87
2022/12/29 00:51:57;;;;;;;2.65;1.20;;;;;;;;;;6089626;23;20025;-86
2022/12/29 00:54:23;;;;;;;3.35;1.17;;;;;;;;;;6091741;23;20350;-87
2022/12/29 00:56:49;;;;;;;2.10;0.88;;;;;;;;;;6067010;23;20459;-87
2022/12/29 00:59:15;;;;;;;2.90;1.02;;;;;;;;;;6068306;23;20025;-87
2022/12/29 01:01:40;;;;;;;2.95;1.10;;;;;;;;;;6066565;23;20017;-86
2022/12/29 01:04:07;;;;;;;2.13;1.00;;;;;;;;;;6066926;23;20021;-86
2022/12/29 01:06:33;;;;;;;2.72;1.13;;;;;;;;;;6065725;23;20040;-87
2022/12/29 01:11:42;;;;;;;3.05;1.30;;;;;;;;;;6095042;23;20753;-86
2022/12/29 01:14:08;;;;;;;2.25;1.10;;;;;;;;;;6067598;23;20433;-86
2022/12/29 01:16:33;;;;;;;3.58;1.30;;;;;;;;;;6067279;23;20026;-86
2022/12/29 01:18:59;;;;;;;2.83;1.10;;;;;;;;;;6092350;23;20022;-85
2022/12/29 01:21:25;;;;;;;3.55;1.20;;;;;;;;;;6091210;23;20057;-86
2022/12/29 01:23:51;;;;;;;2.95;1.10;;;;;;;;;;6067482;23;20010;-86
2022/12/29 01:26:17;;;;;;;2.80;1.20;;;;;;;;;;6067822;23;20106;-87
2022/12/29 01:28:42;;;;;;;2.20;1.00;;;;;;;;;;6091309;23;20084;-86
2022/12/29 01:31:12;;;;;;;2.45;1.00;;;;;;;;;;6090646;23;20025;-86
2022/12/29 01:33:38;;;;;;;2.40;1.08;;;;;;;;;;6091478;23;20930;-85
2022/12/29 01:36:05;;;;;;;3.85;1.38;;;;;;;;;;6066693;23;20025;-85
2022/12/29 01:38:31;;;;;;;1.88;0.85;;;;;;;;;;6067502;23;20839;-87
2022/12/29 01:40:57;;;;;;;2.30;1.25;;;;;;;;;;6066769;23;20353;-86
2022/12/29 01:43:39;;;;;;;2.22;0.90;;;;;;;;;;6067300;23;20021;-87
2022/12/29 01:46:12;;;;;;;2.80;1.02;;;;;;;;;;6066757;23;20028;-86
2022/12/29 01:48:37;;;;;;;2.78;1.10;;;;;;;;;;6091270;23;20366;-86
2022/12/29 01:51:02;;;;;;;2.72;1.10;;;;;;;;;;6091452;23;20013;-85
2022/12/29 01:53:30;;;;;;;2.88;1.00;;;;;;;;;;6067649;23;20454;-86
2022/12/29 01:55:59;;;;;;;2.97;1.10;;;;;;;;;;6090526;23;20485;-85
2022/12/29 01:58:29;;;;;;;3.00;1.20;;;;;;;;;;6091792;23;20510;-85
2022/12/29 02:00:54;;;;;;;2.75;1.17;;;;;;;;;;6066903;23;20100;-85
2022/12/29 02:03:21;;;;;;;2.83;1.10;;;;;;;;;;6067237;23;20049;-85
2022/12/29 02:05:55;;;;;;;2.75;0.82;;;;;;;;;;6067227;23;20397;-84
2022/12/29 02:08:22;;;;;;;2.55;1.00;;;;;;;;;;6066942;23;20387;-85
2022/12/29 02:10:48;;;;;;;3.13;0.93;;;;;;;;;;6067766;23;20339;-85
2022/12/29 02:13:17;;;;;;;2.45;1.00;;;;;;;;;;6066476;23;20024;-85
2022/12/29 02:16:01;;;;;;;2.47;1.23;;;;;;;;;;6066381;23;20025;-85
2022/12/29 02:18:40;;;;;;;2.35;1.13;;;;;;;;;;6091340;23;20025;-85
2022/12/29 02:21:23;;;;;;;3.47;1.17;;;;;;;;;;6090648;23;20020;-84
2022/12/29 02:24:12;;;;;;;3.38;1.10;;;;;;;;;;6118112;23;20065;-85
2022/12/29 02:27:35;;;;;;;2.75;1.08;;;;;;;;;;6117028;23;20529;-84
2022/12/29 02:30:03;;;;;;;5.20;1.73;;;;;;;;;;5981864;23;20124;-84
2022/12/29 02:32:31;;;;;;;2.92;1.00;;;;;;;;;;6088392;23;20030;-84
2022/12/29 02:35:14;;;;;;;2.67;1.00;;;;;;;;;;6093044;23;20688;-84
2022/12/29 02:37:47;;;;;;;2.35;1.00;;;;;;;;;;6092706;23;20482;-85
2022/12/29 02:40:41;;;;;;;2.17;0.90;;;;;;;;;;6118154;23;20328;-85
2022/12/29 02:43:37;;;;;;;2.38;1.13;;;;;;;;;;6081075;23;20153;-84
2022/12/29 02:46:04;;;;;;;2.30;1.13;;;;;;;;;;6091567;23;20021;-85
2022/12/29 02:48:35;;;;;;;3.00;0.90;;;;;;;;;;6069177;23;20809;-84
2022/12/29 02:51:15;;;;;;;2.40;0.85;;;;;;;;;;6068571;23;20033;-86
2022/12/29 02:56:25;;;;;;;1.70;0.80;;;;;;;;;;6117170;23;20081;-84
2022/12/29 02:58:50;;;;;;;2.13;0.90;;;;;;;;;;6068703;23;20351;-84
2022/12/29 03:01:30;;;;;;;2.20;0.98;;;;;;;;;;6092437;23;20618;-85
2022/12/29 03:04:04;;;;;;;2.42;1.15;;;;;;;;;;6092955;23;20080;-85
2022/12/29 03:06:35;;;;;;;2.28;1.00;;;;;;;;;;6092131;23;20025;-84
2022/12/29 03:09:20;;;;;;;2.95;1.13;;;;;;;;;;6069236;23;20044;-83
2022/12/29 03:12:08;;;;;;;2.28;0.90;;;;;;;;;;6092320;23;20041;-84
2022/12/29 03:17:26;;;;;;;1.75;0.70;;;;;;;;;;6096200;23;20021;-84
2022/12/29 03:19:52;;;;;;;3.08;0.90;;;;;;;;;;6119494;23;20085;-84
2022/12/29 03:22:30;;;;;;;1.75;0.80;;;;;;;;;;6068627;23;20028;-85
2022/12/29 03:25:10;;;;;;;;;;;;;;;;;;6094993;23;20014;-86
2022/12/29 03:27:40;;;;;;;2.55;0.75;;;;;;;;;;6068559;23;19913;-85
2022/12/29 03:30:06;;;;;;;2.03;0.93;;;;;;;;;;6069755;23;20013;-84
2022/12/29 03:32:36;;;;;;;2.47;0.95;;;;;;;;;;6067998;23;20018;-84
2022/12/29 03:35:03;;;;;;;2.95;0.85;;;;;;;;;;6069581;23;20402;-85
2022/12/29 03:37:37;;;;;;;4.00;1.10;;;;;;;;;;6092724;23;20018;-86
2022/12/29 03:40:03;;;;;;;2.60;1.08;;;;;;;;;;6093640;23;20245;-84
2022/12/29 03:42:31;;;;;;;1.83;0.80;;;;;;;;;;6068137;23;20038;-86
2022/12/29 03:44:56;;;;;;;2.10;0.95;;;;;;;;;;6069370;23;20376;-84
2022/12/29 03:47:23;;;;;;;2.70;1.08;;;;;;;;;;6067787;23;20018;-88
2022/12/29 03:49:48;;;;;;;2.20;0.90;;;;;;;;;;6069345;23;20041;-86
2022/12/29 03:52:14;;;;;;;1.83;0.90;;;;;;;;;;6092061;23;20358;-85
2022/12/29 03:54:39;;;;;;;1.83;0.80;;;;;;;;;;6068927;23;20026;-85
2022/12/29 03:57:08;;;;;;;2.30;1.00;;;;;;;;;;6067885;23;20100;-85
2022/12/29 03:59:34;;;;;;;2.00;0.95;;;;;;;;;;6068434;23;20026;-85
2022/12/29 04:01:59;;;;;;;2.03;0.85;;;;;;;;;;6067911;23;20382;-86
2022/12/29 04:04:25;;;;;;;2.70;1.15;;;;;;;;;;6068783;23;20474;-86
2022/12/29 04:06:50;;;;;;;1.85;0.85;;;;;;;;;;6067821;23;20096;-85
2022/12/29 04:09:16;;;;;;;1.80;0.90;;;;;;;;;;6093129;23;20022;-86
2022/12/29 04:11:41;;;;;;;2.88;1.00;;;;;;;;;;6067832;23;20040;-84
2022/12/29 04:14:06;;;;;;;2.30;1.00;;;;;;;;;;6068266;23;20014;-85
2022/12/29 04:16:35;;;;;;;4.07;0.88;;;;;;;;;;6068009;23;20705;-85
2022/12/29 04:19:01;;;;;;;3.38;0.90;;;;;;;;;;6069836;23;20013;-85
2022/12/29 04:21:29;;;;;;;2.15;1.08;;;;;;;;;;6068631;23;20362;-84
2022/12/29 04:23:55;;;;;;;2.05;0.85;;;;;;;;;;6068617;23;20493;-85
2022/12/29 04:26:20;;;;;;;1.48;0.80;;;;;;;;;;6092236;23;20029;-86
2022/12/29 04:28:46;;;;;;;1.90;0.80;;;;;;;;;;6069412;23;20454;-84
2022/12/29 04:31:11;;;;;;;2.70;1.00;;;;;;;;;;6092029;23;20037;-85
2022/12/29 04:33:37;;;;;;;2.33;0.90;;;;;;;;;;6068129;23;20018;-85
2022/12/29 04:36:02;;;;;;;3.00;1.02;;;;;;;;;;6068172;23;20017;-84
2022/12/29 04:38:28;;;;;;;1.77;0.90;;;;;;;;;;6091001;23;20029;-84
2022/12/29 04:40:56;;;;;;;2.67;0.88;;;;;;;;;;6067173;23;20053;-85
2022/12/29 04:43:24;;;;;;;2.35;0.80;;;;;;;;;;6068681;23;20485;-85
2022/12/29 04:45:50;;;;;;;2.45;0.90;;;;;;;;;;6068401;23;20045;-86
2022/12/29 04:48:15;;;;;;;3.50;1.10;;;;;;;;;;6068514;23;20033;-86
2022/12/29 04:50:41;;;;;;;1.95;0.73;;;;;;;;;;6066919;23;20018;-85
2022/12/29 04:53:06;;;;;;;2.45;0.93;;;;;;;;;;6067585;23;20041;-85
2022/12/29 04:55:32;;;;;;;2.47;1.00;;;;;;;;;;6068243;23;20021;-85
2022/12/29 04:57:57;;;;;;;2.33;1.02;;;;;;;;;;6068257;23;20038;-85
2022/12/29 05:00:23;;;;;;;2.60;1.10;;;;;;;;;;6067786;23;20022;-85
2022/12/29 05:02:48;;;;;;;2.42;1.08;;;;;;;;;;6092279;23;20028;-86
2022/12/29 05:05:14;;;;;;;2.88;1.02;;;;;;;;;;6067508;23;20065;-86
2022/12/29 05:07:40;;;;;;;2.65;1.00;;;;;;;;;;6067678;23;20610;-85
2022/12/29 05:10:06;;;;;;;3.00;0.90;;;;;;;;;;6067416;23;20009;-85
2022/12/29 05:12:32;;;;;;;2.97;1.08;;;;;;;;;;6067110;23;20065;-85
2022/12/29 05:14:57;;;;;;;2.47;0.90;;;;;;;;;;6091916;23;20473;-86
2022/12/29 05:17:23;;;;;;;3.53;1.27;;;;;;;;;;6091360;23;20021;-86
2022/12/29 05:19:48;;;;;;;2.75;1.05;;;;;;;;;;6068730;23;20068;-85
2022/12/29 05:22:14;;;;;;;2.10;0.80;;;;;;;;;;6091195;23;20097;-85
2022/12/29 05:24:39;;;;;;;3.42;0.93;;;;;;;;;;6092524;23;20025;-85
2022/12/29 05:27:05;;;;;;;2.33;0.93;;;;;;;;;;6091720;23;20014;-85
2022/12/29 05:29:30;;;;;;;2.08;0.80;;;;;;;;;;6091579;23;20093;-85
2022/12/29 05:31:56;;;;;;;2.17;1.00;;;;;;;;;;6066905;23;20323;-85
2022/12/29 05:34:21;;;;;;;2.45;0.98;;;;;;;;;;6090701;23;20030;-85
2022/12/29 05:36:46;;;;;;;3.10;1.17;;;;;;;;;;6092157;23;20085;-85
2022/12/29 05:39:12;;;;;;;2.45;0.88;;;;;;;;;;6067364;23;20049;-84
2022/12/29 05:41:37;;;;;;;2.00;0.88;;;;;;;;;;6066245;23;20068;-85
2022/12/29 05:44:03;;;;;;;1.92;0.70;;;;;;;;;;6091213;23;20026;-85
2022/12/29 05:46:31;;;;;;;2.10;0.80;;;;;;;;;;6067619;23;20077;-85
2022/12/29 05:48:56;;;;;;;2.30;0.90;;;;;;;;;;6067524;23;20076;-86
2022/12/29 05:51:22;;;;;;;2.08;0.77;;;;;;;;;;6065920;23;20022;-86
2022/12/29 05:53:47;;;;;;;2.22;0.90;;;;;;;;;;6092072;23;20021;-85
2022/12/29 05:56:12;;;;;;;2.10;0.95;;;;;;;;;;6071709;23;20021;-85
2022/12/29 05:58:38;;;;;;;2.15;0.82;;;;;;;;;;6054399;23;20095;-84
2022/12/29 06:01:03;;;;;;;2.90;0.80;;;;;;;;;;6066533;23;20028;-87
2022/12/29 06:03:28;;;;;;;3.35;1.00;;;;;;;;;;6067407;23;20033;-85
2022/12/29 06:05:54;;;;;;;2.70;0.95;;;;;;;;;;6090784;23;20022;-85
2022/12/29 06:08:20;;;;;;;2.20;1.00;;;;;;;;;;6092956;23;20097;-85
2022/12/29 06:10:45;;;;;;;2.78;1.05;;;;;;;;;;6115489;23;20025;-86
2022/12/29 06:13:10;;;;;;;2.17;0.88;;;;;;;;;;6091528;23;20025;-86
2022/12/29 06:15:36;;;;;;;1.85;0.77;;;;;;;;;;6067940;23;20326;-85
2022/12/29 06:18:01;;;;;;;1.50;0.80;;;;;;;;;;6067084;23;20014;-85
2022/12/29 06:20:27;;;;;;;2.20;0.98;;;;;;;;;;6091205;23;20045;-83
2022/12/29 06:22:53;;;;;;;1.60;0.80;;;;;;;;;;6068212;23;20067;-85
2022/12/29 06:25:18;;;;;;;2.63;0.90;;;;;;;;;;6067782;23;20022;-84
2022/12/29 06:27:44;;;;;;;1.98;0.88;;;;;;;;;;6091593;23;20378;-85
2022/12/29 06:30:10;;;;;;;2.10;0.80;;;;;;;;;;6092072;23;20025;-85
2022/12/29 06:32:36;;;;;;;2.17;0.85;;;;;;;;;;6090558;23;20077;-85
2022/12/29 06:35:03;;;;;;;2.72;0.63;;;;;;;;;;6067609;23;20435;-84
2022/12/29 06:37:28;;;;;;;1.67;0.68;;;;;;;;;;6067529;23;20498;-88
2022/12/29 06:39:54;;;;;;;2.45;1.00;;;;;;;;;;6092224;23;20017;-90
2022/12/29 06:42:19;;;;;;;2.40;0.95;;;;;;;;;;6067173;23;20549;-89
2022/12/29 06:44:44;;;;;;;1.85;0.68;;;;;;;;;;6082036;23;20028;-90
2022/12/29 06:47:10;;;;;;;2.28;0.93;;;;;;;;;;6070163;23;20064;-89
2022/12/29 06:49:35;;;;;;;2.25;1.10;;;;;;;;;;6070560;23;20350;-91
2022/12/29 06:52:03;;;;;;;2.28;1.00;;;;;;;;;;6067813;23;20017;-91
2022/12/29 06:54:29;;;;;;;2.03;0.73;;;;;;;;;;6053251;23;20358;-91
2022/12/29 06:56:56;;;;;;;1.65;0.70;;;;;;;;;;6045463;23;20014;-88
2022/12/29 06:59:22;;;;;;;1.98;0.80;;;;;;;;;;6078814;23;20025;-89
2022/12/29 07:01:47;;;;;;;2.15;0.80;;;;;;;;;;6045351;23;20018;-89
2022/12/29 07:04:12;;;;;;;1.75;0.65;;;;;;;;;;6069882;23;20057;-88
2022/12/29 07:06:40;;;;;;;1.75;0.65;;;;;;;;;;6092149;23;20030;-91
2022/12/29 07:09:06;;;;;;;2.20;0.90;;;;;;;;;;6095331;23;20094;-90
2022/12/29 07:11:31;;;;;;;2.15;0.77;;;;;;;;;;6069322;23;20041;-89
2022/12/29 07:13:57;;;;;;;2.10;1.00;;;;;;;;;;6118333;23;20049;-90
2022/12/29 07:16:22;;;;;;;3.67;0.90;;;;;;;;;;6069368;23;20018;-91
2022/12/29 07:18:48;;;;;;;2.53;0.80;;;;;;;;;;6071381;23;20006;-88
2022/12/29 07:21:13;;;;;;;2.28;0.85;;;;;;;;;;6070107;23;20025;-90
2022/12/29 07:23:38;;;;;;;1.88;0.73;;;;;;;;;;6070590;23;20026;-90
2022/12/29 07:26:06;;;;;;;2.80;0.80;;;;;;;;;;6094879;23;20343;-90
2022/12/29 07:28:32;;;;;;;;;;;;;;;;;;6071314;23;20464;-90
2022/12/29 07:30:58;;;;;;;2.53;0.88;;;;;;;;;;6069180;23;19909;-90
2022/12/29 07:33:23;;;;;;;2.50;1.00;;;;;;;;;;6069607;23;20367;-90
2022/12/29 07:35:49;;;;;;;2.65;0.80;;;;;;;;;;6094110;23;20021;-89
2022/12/29 07:38:14;;;;;;;2.20;0.80;;;;;;;;;;6094748;23;20396;-90
2022/12/29 07:40:40;;;;;;;2.75;0.95;;;;;;;;;;6070129;23;20435;-89
2022/12/29 07:43:05;;;;;;;2.03;0.70;;;;;;;;;;6071480;23;20014;-91
2022/12/29 07:45:31;;;;;;;3.85;0.95;;;;;;;;;;6069828;23;20014;-90
2022/12/29 07:47:56;;;;;;;1.70;0.75;;;;;;;;;;6070473;23;20017;-89
2022/12/29 07:50:21;;;;;;;1.83;0.80;;;;;;;;;;6072522;23;20018;-93
2022/12/29 07:52:47;;;;;;;1.77;0.60;;;;;;;;;;6071361;23;20052;-91
2022/12/29 07:55:16;;;;;;;1.52;0.70;;;;;;;;;;6070104;23;20462;-88
2022/12/29 07:57:42;;;;;;;1.50;0.70;;;;;;;;;;6070173;23;20497;-89
2022/12/29 08:00:09;;;;;;;1.65;0.70;;;;;;;;;;6070519;23;20683;-90
2022/12/29 08:02:35;;;;;;;2.27;0.83;;;;;;;;;;6066948;23;20025;-91
2022/12/29 08:05:00;;;;;;;2.25;0.68;;;;;;;;;;6070390;23;20018;-90
2022/12/29 08:07:26;;;;;;;1.90;0.80;;;;;;;;;;6068518;23;20359;-90
2022/12/29 08:09:51;;;;;;;1.73;0.73;;;;;;;;;;6094387;23;20458;-91
2022/12/29 08:12:17;;;;;;;1.80;0.70;;;;;;;;;;6093319;23;20460;-90
2022/12/29 08:14:43;;;;;;;2.05;0.90;;;;;;;;;;6070176;23;20052;-88
2022/12/29 08:17:08;;;;;;;2.22;0.93;;;;;;;;;;6092389;23;20020;-90
2022/12/29 08:19:33;;;;;;;2.22;0.70;;;;;;;;;;6069673;23;20021;-90
2022/12/29 08:21:59;;;;;;;1.80;0.73;;;;;;;;;;6068739;23;20068;-89
2022/12/29 08:24:24;;;;;;;3.20;0.80;;;;;;;;;;6069956;23;20021;-91
2022/12/29 08:26:50;;;;;;;1.88;0.75;;;;;;;;;;6070008;23;20021;-89
2022/12/29 08:29:15;;;;;;;2.05;0.70;;;;;;;;;;6070606;23;20429;-88
2022/12/29 08:31:40;;;;;;;1.95;0.70;;;;;;;;;;6069930;23;20013;-90
2022/12/29 08:34:06;;;;;;;2.42;0.70;;;;;;;;;;6069814;23;20056;-89
2022/12/29 08:36:31;;;;;;;2.80;0.73;;;;;;;;;;6092606;23;20018;-88
2022/12/29 08:38:58;;;;;;;1.77;0.70;;;;;;;;;;6072245;23;20109;-87
2022/12/29 08:41:24;;;;;;;2.05;0.80;;;;;;;;;;6093087;23;20057;-90
2022/12/29 08:43:50;;;;;;;1.70;0.70;;;;;;;;;;6070878;23;20018;-91
2022/12/29 08:46:21;;;;;;;1.85;0.80;;;;;;;;;;6091390;23;20014;-92
2022/12/29 08:48:46;;;;;;;1.40;0.70;;;;;;;;;;6060670;23;20741;-89
2022/12/29 08:51:12;;;;;;;2.78;0.85;;;;;;;;;;6030404;23;20018;-90
2022/12/29 08:53:37;;;;;;;2.53;0.90;;;;;;;;;;6068740;23;20415;-90
2022/12/29 08:56:05;;;;;;;1.73;0.70;;;;;;;;;;6032924;23;20018;-89
2022/12/29 08:58:31;;;;;;;2.40;0.80;;;;;;;;;;6063609;23;20386;-90
2022/12/29 09:01:03;;;;;;;3.03;0.90;;;;;;;;;;6091378;23;20025;-88
2022/12/29 09:03:32;;;;;;;1.63;0.60;;;;;;;;;;6069697;23;20036;-92
2022/12/29 09:05:57;;;;;;;3.83;0.88;;;;;;;;;;6059077;23;20029;-89
2022/12/29 09:08:23;;;;;;;2.88;0.85;;;;;;;;;;6037218;23;20014;-90
2022/12/29 09:10:50;;;;;;;2.10;0.90;;;;;;;;;;6063630;23;20018;-89
2022/12/29 09:13:17;;;;;;;2.85;0.90;;;;;;;;;;6063554;23;20029;-92
2022/12/29 09:15:43;;;;;;;2.00;0.80;;;;;;;;;;6038248;23;20014;-91
2022/12/29 09:18:09;;;;;;;2.60;0.80;;;;;;;;;;6038975;23;20570;-91
2022/12/29 09:20:35;;;;;;;1.90;0.75;;;;;;;;;;6061805;23;20018;-87
2022/12/29 09:23:01;;;;;;;2.67;0.90;;;;;;;;;;6039053;23;20017;-91
2022/12/29 09:25:27;;;;;;;2.00;0.88;;;;;;;;;;6062189;23;20025;-90
2022/12/29 09:27:53;;;;;;;2.78;0.88;;;;;;;;;;6039992;23;20010;-89
2022/12/29 09:30:20;;;;;;;2.42;0.77;;;;;;;;;;6063275;23;20069;-90
2022/12/29 09:32:46;;;;;;;2.13;0.70;;;;;;;;;;6063667;23;20010;-91
2022/12/29 09:35:14;;;;;;;2.92;0.98;;;;;;;;;;6040129;23;20018;-92
2022/12/29 09:37:41;;;;;;;3.10;0.80;;;;;;;;;;6064521;23;20022;-92
2022/12/29 09:40:25;;;;;;;2.60;0.90;;;;;;;;;;5990123;23;20048;-91
2022/12/29 09:43:21;;;;;;;1.92;0.70;;;;;;;;;;6037116;23;20018;-93
2022/12/29 09:46:00;;;;;;;1.88;0.70;;;;;;;;;;6057268;23;20055;-94
2022/12/29 09:48:45;;;;;;;1.98;0.80;;;;;;;;;;6015333;23;20474;-92
2022/12/29 09:51:57;;;;;;;2.05;0.70;;;;;;;;;;5961721;23;20027;-88
2022/12/29 09:54:49;;;;;;;1.38;0.70;;;;;;;;;;5973939;23;20030;-87
2022/12/29 09:57:38;;;;;;;1.67;0.60;;;;;;;;;;6042386;23;20014;-86
2022/12/29 10:00:41;;;;;;;2.28;0.70;;;;;;;;;;6038893;23;20022;-82
2022/12/29 10:03:15;;;;;;;1.58;0.70;;;;;;;;;;6062058;23;20363;-85
2022/12/29 10:06:15;;;;;;;1.85;0.70;;;;;;;;;;6042308;23;20025;-84
2022/12/29 10:08:53;;;;;;;2.45;0.73;;;;;;;;;;6091548;23;20040;-83
2022/12/29 10:11:21;;;;;;;;;;;;;;;;;;6092255;23;20080;-82
2022/12/29 10:14:17;;;;;;;1.90;0.70;;;;;;;;;;6093682;23;19920;-84
2022/12/29 10:17:20;;;;;;;1.80;0.63;;;;;;;;;;6068675;23;20014;-84
2022/12/29 10:19:57;;;;;;;1.70;0.63;;;;;;;;;;6092532;23;20558;-83
2022/12/29 10:22:53;;;;;;;3.13;0.77;;;;;;;;;;6067222;23;20022;-83
2022/12/29 10:25:20;;;;;;;2.10;0.68;;;;;;;;;;6092134;23;20026;-83
2022/12/29 10:27:50;;;;;;;2.50;1.02;;;;;;;;;;6068386;23;20072;-83
2022/12/29 10:30:16;;;;;;;1.90;0.70;;;;;;;;;;6068042;23;20449;-83
2022/12/29 10:32:49;;;;;;;2.60;0.65;;;;;;;;;;6067964;23;20018;-84
2022/12/29 10:35:26;;;;;;;1.38;0.57;;;;;;;;;;6069083;23;20010;-83
2022/12/29 10:37:54;;;;;;;2.35;0.70;;;;;;;;;;6116012;23;20013;-83
2022/12/29 10:40:22;;;;;;;2.63;0.77;;;;;;;;;;6092496;23;20021;-82
2022/12/29 10:42:54;;;;;;;1.83;0.63;;;;;;;;;;6069067;23;20047;-83
2022/12/29 10:45:21;;;;;;;2.95;0.80;;;;;;;;;;6069785;23;20010;-83
2022/12/29 10:48:14;;;;;;;2.75;0.68;;;;;;;;;;6094978;23;20069;-85
2022/12/29 10:50:42;;;;;;;1.45;0.60;;;;;;;;;;6069451;23;20451;-85
2022/12/29 10:53:15;;;;;;;2.35;0.60;;;;;;;;;;6094943;23;20422;-85
2022/12/29 10:55:42;;;;;;;2.60;0.75;;;;;;;;;;6095131;23;20193;-84
2022/12/29 10:58:32;;;;;;;1.38;0.60;;;;;;;;;;6095497;23;20462;-84
2022/12/29 11:01:03;;;;;;;2.33;0.68;;;;;;;;;;5979501;23;20424;-88
2022/12/29 11:03:38;;;;;;;1.55;0.70;;;;;;;;;;5956966;23;20027;-86
2022/12/29 11:06:11;;;;;;;2.60;0.88;;;;;;;;;;5990288;23;20027;-85
2022/12/29 11:08:40;;;;;;;2.35;0.65;;;;;;;;;;5956129;23;20015;-85
2022/12/29 11:11:09;;;;;;;2.13;0.60;;;;;;;;;;5955729;23;20020;-85
2022/12/29 11:13:49;;;;;;;2.38;0.80;;;;;;;;;;5956118;23;20016;-87
2022/12/29 11:16:14;;;;;;;1.98;0.60;;;;;;;;;;5965726;23;20390;-87
2022/12/29 11:18:42;;;;;;;4.00;0.80;;;;;;;;;;5956779;23;20139;-85
2022/12/29 11:21:30;;;;;;;1.83;0.68;;;;;;;;;;5978331;23;20026;-85
2022/12/29 11:23:58;;;;;;;1.40;0.60;;;;;;;;;;5979813;23;20392;-87
2022/12/29 11:26:24;;;;;;;1.35;0.47;;;;;;;;;;5976420;23;20465;-86
2022/12/29 11:29:08;;;;;;;1.17;0.60;;;;;;;;;;5979979;23;20152;-84
2022/12/29 11:31:58;;;;;;;1.58;0.65;;;;;;;;;;5978573;23;20332;-88
2022/12/29 11:34:25;;;;;;;1.63;0.57;;;;;;;;;;5926267;23;20095;-86
2022/12/29 11:36:53;;;;;;;1.70;0.70;;;;;;;;;;5979772;23;20022;-84
2022/12/29 11:39:41;;;;;;;2.05;0.60;;;;;;;;;;6071797;23;20081;-83
2022/12/29 11:42:14;;;;;;;2.08;0.68;;;;;;;;;;6104216;23;20097;-84
2022/12/29 11:44:46;;;;;;;4.55;0.40;;;;;;;;;;6094823;23;20323;-84
2022/12/29 11:47:28;;;;;;;3.70;0.55;;;;;;;;;;6069476;23;20022;-83
2022/12/29 11:49:57;;;;;;;2.20;0.70;;;;;;;;;;6094511;23;20029;-85
2022/12/29 11:52:32;;;;;;;2.88;0.60;;;;;;;;;;6069274;23;20089;-86
2022/12/29 11:55:00;;;;;;;1.77;0.50;;;;;;;;;;6094878;23;20025;-86
2022/12/29 11:57:26;;;;;;;;;;;;;;;;;;6071583;23;20018;-83
2022/12/29 11:59:57;;;;;;;0.93;0.50;;;;;;;;;;6071203;23;19919;-84
2022/12/29 12:02:42;;;;;;;1.67;0.60;;;;;;;;;;6070802;23;20010;-84
2022/12/29 12:05:36;;;;;;;1.98;0.60;;;;;;;;;;6071325;23;20085;-84
2022/12/29 12:08:08;;;;;;;1.90;0.60;;;;;;;;;;6072472;23;20523;-85
2022/12/29 12:10:44;;;;;;;2.67;0.45;;;;;;;;;;6071464;23;20038;-81
2022/12/29 12:13:21;;;;;;;1.25;0.50;;;;;;;;;;6072680;23;20057;-82
2022/12/29 12:15:59;;;;;;;2.70;1.20;;;;;;;;;;6071503;23;20037;-83
2022/12/29 12:18:45;;;;;;;3.75;0.98;;;;;;;;;;6095096;23;20037;-83
2022/12/29 12:21:35;;;;;;;0.97;0.50;;;;;;;;;;6071880;23;20417;-82
2022/12/29 12:24:19;;;;;;;2.58;0.57;;;;;;;;;;6121789;23;20081;-83
2022/12/29 12:26:52;;;;;;;1.33;0.50;;;;;;;;;;6095428;23;20097;-83
2022/12/29 12:29:41;;;;;;;2.35;0.70;;;;;;;;;;6071706;23;20020;-84
2022/12/29 12:32:22;;;;;;;2.28;0.82;;;;;;;;;;6095102;23;20016;-83
2022/12/29 12:34:48;;;;;;;2.28;0.73;;;;;;;;;;6072275;23;20010;-83
2022/12/29 12:37:35;;;;;;;1.42;0.52;;;;;;;;;;6070967;23;20093;-83
2022/12/29 12:40:24;;;;;;;1.83;0.70;;;;;;;;;;6095538;23;20045;-83
2022/12/29 12:43:17;;;;;;;1.52;0.60;;;;;;;;;;6095617;23;20391;-83
2022/12/29 12:45:55;;;;;;;1.75;0.60;;;;;;;;;;6093950;23;20370;-83
2022/12/29 12:48:35;;;;;;;1.77;0.50;;;;;;;;;;6093673;23;20020;-84
2022/12/29 12:51:19;;;;;;;2.20;0.50;;;;;;;;;;6094319;23;20021;-83
2022/12/29 12:53:58;;;;;;;1.70;0.50;;;;;;;;;;6096060;23;20075;-83
2022/12/29 12:56:30;;;;;;;1.83;0.50;;;;;;;;;;6071343;23;20014;-83
2022/12/29 12:59:23;;;;;;;1.48;0.50;;;;;;;;;;6096526;23;20018;-83
2022/12/29 13:02:21;;;;;;;1.80;0.68;;;;;;;;;;6095952;23;20017;-84
2022/12/29 13:05:40;;;;;;;1.27;0.50;;;;;;;;;;6042298;23;20014;-83
2022/12/29 13:08:11;;;;;;;0.93;0.40;;;;;;;;;;6003738;23;20027;-83
2022/12/29 13:11:01;;;;;;;1.65;0.60;;;;;;;;;;6100868;23;20013;-83
2022/12/29 13:13:50;;;;;;;1.63;0.57;;;;;;;;;;6120493;23;20014;-83
2022/12/29 13:16:41;;;;;;;1.55;0.70;;;;;;;;;;6095171;23;20481;-83
2022/12/29 13:19:27;;;;;;;1.90;0.73;;;;;;;;;;6121778;23;20010;-83
2022/12/29 13:22:02;;;;;;;2.07;1.00;;;;;;;;;;6120183;23;20334;-82
2022/12/29 13:24:42;;;;;;;2.15;0.85;;;;;;;;;;6071247;23;20021;-83
2022/12/29 13:27:38;;;;;;;5.80;1.10;;;;;;;;;;6071002;23;20017;-83
2022/12/29 13:30:09;;;;;;;2.30;0.85;;;;;;;;;;6095064;23;20702;-83
2022/12/29 13:32:43;;;;;;;1.85;0.70;;;;;;;;;;6094773;23;20446;-83
2022/12/29 13:35:36;;;;;;;1.70;0.80;;;;;;;;;;6120985;23;20085;-84
2022/12/29 13:38:24;;;;;;;2.28;0.77;;;;;;;;;;6094725;23;20010;-83
2022/12/29 13:40:53;;;;;;;1.92;0.80;;;;;;;;;;6100535;23;20016;-83
2022/12/29 13:43:20;;;;;;;2.30;0.90;;;;;;;;;;6096163;23;20087;-83
2022/12/29 13:45:45;;;;;;;2.72;0.90;;;;;;;;;;6095757;23;20037;-83
2022/12/29 13:48:17;;;;;;;2.60;0.57;;;;;;;;;;6071222;23;20069;-84
2022/12/29 13:50:46;;;;;;;2.72;1.05;;;;;;;;;;6095361;23;20034;-83
2022/12/29 13:53:27;;;;;;;1.92;0.82;;;;;;;;;;6095659;23;20073;-83
2022/12/29 13:56:04;;;;;;;2.85;0.82;;;;;;;;;;6094380;23;20025;-83
2022/12/29 13:58:40;;;;;;;3.63;1.00;;;;;;;;;;6121008;23;20383;-83
2022/12/29 14:01:15;;;;;;;2.97;1.02;;;;;;;;;;6071307;23;20014;-83
2022/12/29 14:03:53;;;;;;;2.50;1.00;;;;;;;;;;6071149;23;20045;-83
2022/12/29 14:06:19;;;;;;;3.92;1.17;;;;;;;;;;6071009;23;20026;-83
2022/12/29 14:08:44;;;;;;;2.13;0.90;;;;;;;;;;6121110;23;20089;-83
2022/12/29 14:11:12;;;;;;;2.58;1.00;;;;;;;;;;6094426;23;20032;-83
2022/12/29 14:13:40;;;;;;;2.28;0.80;;;;;;;;;;6070467;23;20014;-82
2022/12/29 14:16:06;;;;;;;2.38;0.88;;;;;;;;;;6051003;23;20101;-84
2022/12/29 14:18:34;;;;;;;3.50;1.00;;;;;;;;;;6058261;23;20013;-83
2022/12/29 14:20:59;;;;;;;;;;;;;;;;;;6071965;23;20442;-83
2022/12/29 14:23:33;;;;;;;2.25;1.05;;;;;;;;;;6096898;23;19917;-83
2022/12/29 14:26:20;;;;;;;3.58;1.20;;;;;;;;;;6095816;23;20014;-84
2022/12/29 14:28:49;;;;;;;3.67;1.30;;;;;;;;;;6095570;23;20061;-82
2022/12/29 14:31:14;;;;;;;3.65;1.27;;;;;;;;;;6072216;23;20014;-82
2022/12/29 14:33:41;;;;;;;3.70;1.30;;;;;;;;;;6096296;23;20038;-82
2022/12/29 14:36:25;;;;;;;2.03;0.90;;;;;;;;;;6122195;23;20061;-84
2022/12/29 14:38:51;;;;;;;2.38;1.13;;;;;;;;;;6096387;23;20017;-83
2022/12/29 14:41:29;;;;;;;3.90;1.10;;;;;;;;;;6095390;23;20020;-82
2022/12/29 14:43:58;;;;;;;2.55;1.15;;;;;;;;;;6096167;23;20025;-82
2022/12/29 14:46:24;;;;;;;3.17;1.02;;;;;;;;;;6047502;23;20014;-83
2022/12/29 14:48:55;;;;;;;2.85;1.08;;;;;;;;;;6071915;23;20335;-83
2022/12/29 14:51:47;;;;;;;3.90;1.40;;;;;;;;;;6071789;23;20010;-83
2022/12/29 14:54:31;;;;;;;2.47;1.23;;;;;;;;;;6039639;23;20021;-81
2022/12/29 14:57:02;;;;;;;4.45;1.50;;;;;;;;;;6096026;23;20033;-82
2022/12/29 14:59:29;;;;;;;2.67;1.20;;;;;;;;;;6072839;23;20494;-82
2022/12/29 15:01:55;;;;;;;3.30;1.30;;;;;;;;;;6071907;23;20006;-81
2022/12/29 15:04:24;;;;;;;3.10;1.30;;;;;;;;;;6073798;23;20018;-81
2022/12/29 15:06:50;;;;;;;2.88;1.20;;;;;;;;;;6096604;23;20086;-81
2022/12/29 15:09:21;;;;;;;2.28;1.08;;;;;;;;;;6072858;23;20010;-81
2022/12/29 15:11:55;;;;;;;3.40;1.60;;;;;;;;;;6120392;23;20014;-81
2022/12/29 15:14:34;;;;;;;3.13;1.30;;;;;;;;;;6114822;23;20009;-82
2022/12/29 15:17:00;;;;;;;3.33;1.30;;;;;;;;;;6096159;23;20454;-83
2022/12/29 15:19:27;;;;;;;4.13;1.50;;;;;;;;;;6072752;23;20024;-83
2022/12/29 15:21:55;;;;;;;3.92;1.15;;;;;;;;;;6071873;23;20018;-82
2022/12/29 15:24:20;;;;;;;3.55;0.98;;;;;;;;;;6073148;23;20069;-83
2022/12/29 15:26:54;;;;;;;2.30;1.08;;;;;;;;;;6071952;23;20018;-82
2022/12/29 15:29:32;;;;;;;4.57;1.00;;;;;;;;;;6072553;23;20024;-83
2022/12/29 15:32:01;;;;;;;2.90;0.90;;;;;;;;;;6083469;23;20061;-83
2022/12/29 15:34:29;;;;;;;2.97;1.17;;;;;;;;;;6072199;23;20141;-82
2022/12/29 15:36:55;;;;;;;4.25;1.25;;;;;;;;;;6072224;23;20010;-83
2022/12/29 15:39:30;;;;;;;2.92;1.23;;;;;;;;;;6073264;23;20100;-83
2022/12/29 15:42:00;;;;;;;3.55;1.40;;;;;;;;;;6071665;23;20025;-83
2022/12/29 15:44:30;;;;;;;3.88;1.48;;;;;;;;;;6072050;23;20029;-82